Time,TemperatureF,DewpointF,PressureIn,WindDirection,WindDirectionDegrees,WindSpeedMPH,WindSpeedGustMPH,Humidity,HourlyPrecipIn,Conditions,Clouds,dailyrainin,SoftwareType,DateUTC
2013-09-12 00:04:00,69.4,67.3,29.87,NNE,22,3.2,-999.0,93,-99.99,,,0.00,Acu-Link.com,2013-09-12 06:04:00,
2013-09-12 00:20:00,69.6,67.2,29.87,ENE,67,3.2,-999.0,92,-99.99,,,0.00,Acu-Link.com,2013-09-12 06:20:00,
2013-09-12 00:47:00,69.8,67.4,29.86,East,90,4.7,-999.0,92,-99.99,,,0.00,Acu-Link.com,2013-09-12 06:47:00,
2013-09-12 01:02:00,69.6,67.5,29.86,East,90,4.7,-999.0,93,-99.99,,,0.00,Acu-Link.com,2013-09-12 07:02:00,
2013-09-12 01:17:00,69.1,67.6,29.85,ENE,67,4.2,-999.0,95,-99.99,,,0.00,Acu-Link.com,2013-09-12 07:17:00,
2013-09-12 01:32:00,68.7,67.5,29.84,ENE,67,4.7,-999.0,96,-99.99,,,0.00,Acu-Link.com,2013-09-12 07:32:00,
2013-09-12 01:48:00,68.7,67.5,29.85,ENE,67,3.2,-999.0,96,-99.99,,,0.00,Acu-Link.com,2013-09-12 07:48:00,
2013-09-12 02:04:00,68.7,67.8,29.84,ENE,67,2.7,-999.0,97,-99.99,,,0.00,Acu-Link.com,2013-09-12 08:04:00,
2013-09-12 02:19:00,68.7,67.8,29.84,NE,45,4.2,-999.0,97,-99.99,,,0.00,Acu-Link.com,2013-09-12 08:19:00,
2013-09-12 02:34:00,68.7,67.8,29.85,NNE,22,3.7,-999.0,97,-99.99,,,0.00,Acu-Link.com,2013-09-12 08:34:00,
2013-09-12 02:49:00,68.5,67.6,29.84,NNE,22,2.2,-999.0,97,-99.99,,,0.00,Acu-Link.com,2013-09-12 08:49:00,
2013-09-12 03:05:00,68.4,67.8,29.84,NNE,22,3.2,-999.0,98,-99.99,,,0.00,Acu-Link.com,2013-09-12 09:05:00,
2013-09-12 03:20:00,68.4,67.8,29.83,NNE,22,2.2,-999.0,98,-99.99,,,0.00,Acu-Link.com,2013-09-12 09:20:00,
2013-09-12 03:35:00,68.4,67.8,29.85,NNW,337,3.2,-999.0,98,-99.99,,,0.00,Acu-Link.com,2013-09-12 09:35:00,
2013-09-12 03:50:00,68.2,67.6,29.84,NNE,22,3.7,-999.0,98,-99.99,,,0.00,Acu-Link.com,2013-09-12 09:50:00,
2013-09-12 04:05:00,68.2,67.6,29.83,NNE,22,2.7,-999.0,98,-99.99,,,0.01,Acu-Link.com,2013-09-12 10:05:00,
2013-09-12 04:20:00,68.0,67.4,29.84,NNE,22,4.2,-999.0,98,-99.99,,,0.01,Acu-Link.com,2013-09-12 10:20:00,
2013-09-12 04:36:00,67.8,67.2,29.84,NE,45,2.2,-999.0,98,-99.99,,,0.01,Acu-Link.com,2013-09-12 10:36:00,
2013-09-12 04:54:00,67.6,67.3,29.84,North,0,0.0,-999.0,99,-99.99,,,0.01,Acu-Link.com,2013-09-12 10:54:00,
2013-09-12 05:10:00,67.5,67.2,29.84,East,90,2.2,-999.0,99,-99.99,,,0.10,Acu-Link.com,2013-09-12 11:10:00,
2013-09-12 05:25:00,67.3,67.0,29.85,SSE,157,3.7,-999.0,99,-99.99,,,0.12,Acu-Link.com,2013-09-12 11:25:00,
2013-09-12 05:46:00,66.6,66.3,29.84,NNE,22,5.8,-999.0,99,-99.99,,,0.25,Acu-Link.com,2013-09-12 11:46:00,
2013-09-12 06:01:00,66.4,66.1,29.84,East,90,2.7,-999.0,99,-99.99,,,0.25,Acu-Link.com,2013-09-12 12:01:00,
2013-09-12 06:16:00,66.4,66.1,29.84,NE,45,4.2,-999.0,99,-99.99,,,0.25,Acu-Link.com,2013-09-12 12:16:00,
2013-09-12 06:32:00,66.6,66.3,29.85,NNE,22,3.2,-999.0,99,-99.99,,,0.25,Acu-Link.com,2013-09-12 12:32:00,
2013-09-12 06:47:00,66.6,66.3,29.85,ESE,112,2.7,-999.0,99,-99.99,,,0.25,Acu-Link.com,2013-09-12 12:47:00,
2013-09-12 07:12:00,66.6,66.3,29.87,East,90,3.2,-999.0,99,-99.99,,,0.27,Acu-Link.com,2013-09-12 13:12:00,
2013-09-12 07:28:00,66.0,65.7,29.88,ESE,112,7.3,-999.0,99,-99.99,,,0.35,Acu-Link.com,2013-09-12 13:28:00,
2013-09-12 07:43:00,65.7,65.4,29.89,East,90,5.8,-999.0,99,-99.99,,,0.41,Acu-Link.com,2013-09-12 13:43:00,
2013-09-12 07:58:00,65.5,65.2,29.88,ESE,112,8.3,-999.0,99,-99.99,,,0.50,Acu-Link.com,2013-09-12 13:58:00,
2013-09-12 08:13:00,65.5,65.2,29.89,East,90,6.3,-999.0,99,-99.99,,,0.57,Acu-Link.com,2013-09-12 14:13:00,
2013-09-12 08:28:00,65.7,65.4,29.88,ESE,112,6.3,-999.0,99,-99.99,,,0.60,Acu-Link.com,2013-09-12 14:28:00,
2013-09-12 08:43:00,65.7,65.4,29.89,ESE,112,5.3,-999.0,99,-99.99,,,0.62,Acu-Link.com,2013-09-12 14:43:00,
2013-09-12 08:58:00,65.7,65.4,29.90,East,90,7.3,-999.0,99,-99.99,,,0.65,Acu-Link.com,2013-09-12 14:58:00,
2013-09-12 09:13:00,65.7,65.4,29.88,ESE,112,6.8,-999.0,99,-99.99,,,0.67,Acu-Link.com,2013-09-12 15:13:00,
2013-09-12 09:28:00,66.2,65.9,29.89,ESE,112,6.3,-999.0,99,-99.99,,,0.68,Acu-Link.com,2013-09-12 15:28:00,
2013-09-12 09:43:00,66.2,65.9,29.89,ENE,67,5.8,-999.0,99,-99.99,,,0.68,Acu-Link.com,2013-09-12 15:43:00,
2013-09-12 09:58:00,66.2,65.9,29.89,ESE,112,6.3,-999.0,99,-99.99,,,0.70,Acu-Link.com,2013-09-12 15:58:00,
2013-09-12 10:13:00,66.0,65.4,29.89,ESE,112,7.3,-999.0,98,-99.99,,,0.73,Acu-Link.com,2013-09-12 16:13:00,
2013-09-12 10:28:00,65.7,65.4,29.90,ESE,112,6.8,-999.0,99,-99.99,,,0.80,Acu-Link.com,2013-09-12 16:28:00,
2013-09-12 10:43:00,65.1,64.8,29.90,East,90,8.3,-999.0,99,-99.99,,,1.01,Acu-Link.com,2013-09-12 16:43:00,
2013-09-12 10:59:00,65.3,65.0,29.90,NE,45,8.3,-999.0,99,-99.99,,,1.11,Acu-Link.com,2013-09-12 16:59:00,
2013-09-12 11:15:00,65.3,65.0,29.89,East,90,5.3,-999.0,99,-99.99,,,1.24,Acu-Link.com,2013-09-12 17:15:00,
2013-09-12 11:30:00,65.7,65.4,29.89,ESE,112,7.8,-999.0,99,-99.99,,,1.49,Acu-Link.com,2013-09-12 17:30:00,
2013-09-12 11:57:00,66.2,65.9,29.88,ESE,112,14.0,-999.0,99,-99.99,,,1.49,Acu-Link.com,2013-09-12 17:57:00,
2013-09-12 12:12:00,66.4,66.1,29.89,ENE,67,6.3,-999.0,99,-99.99,,,1.71,Acu-Link.com,2013-09-12 18:12:00,
2013-09-12 12:27:00,66.4,66.1,29.88,NE,45,7.3,-999.0,99,-99.99,,,1.86,Acu-Link.com,2013-09-12 18:27:00,
2013-09-12 12:42:00,66.4,66.1,29.88,NE,45,7.3,-999.0,99,-99.99,,,1.90,Acu-Link.com,2013-09-12 18:42:00,
2013-09-12 12:57:00,66.7,66.4,29.89,NE,45,9.9,-999.0,99,-99.99,,,1.94,Acu-Link.com,2013-09-12 18:57:00,
2013-09-12 13:12:00,66.9,66.6,29.87,NE,45,5.8,-999.0,99,-99.99,,,1.98,Acu-Link.com,2013-09-12 19:12:00,
2013-09-12 13:28:00,66.9,66.6,29.88,NNE,22,5.8,-999.0,99,-99.99,,,1.98,Acu-Link.com,2013-09-12 19:28:00,
2013-09-12 13:43:00,66.7,66.4,29.87,NW,315,6.3,-999.0,99,-99.99,,,1.98,Acu-Link.com,2013-09-12 19:43:00,
2013-09-12 13:58:00,66.6,66.3,29.88,WSW,247,5.8,-999.0,99,-99.99,,,1.98,Acu-Link.com,2013-09-12 19:58:00,
2013-09-12 14:13:00,66.4,66.1,29.88,WNW,292,3.2,-999.0,99,-99.99,,,1.98,Acu-Link.com,2013-09-12 20:13:00,
2013-09-12 14:28:00,66.6,66.3,29.87,NNE,22,6.3,-999.0,99,-99.99,,,1.98,Acu-Link.com,2013-09-12 20:28:00,
2013-09-12 14:43:00,66.9,66.3,29.87,NNW,337,4.2,-999.0,98,-99.99,,,1.98,Acu-Link.com,2013-09-12 20:43:00,
2013-09-12 14:58:00,67.3,65.8,29.86,NE,45,6.3,-999.0,95,-99.99,,,1.98,Acu-Link.com,2013-09-12 20:58:00,
2013-09-12 15:14:00,66.4,63.7,29.86,NE,45,6.8,-999.0,91,-99.99,,,1.98,Acu-Link.com,2013-09-12 21:14:00,
2013-09-12 15:29:00,66.0,63.3,29.86,NE,45,8.9,-999.0,91,-99.99,,,1.98,Acu-Link.com,2013-09-12 21:29:00,
2013-09-12 15:44:00,65.7,63.0,29.85,NNE,22,6.8,-999.0,91,-99.99,,,1.98,Acu-Link.com,2013-09-12 21:44:00,
2013-09-12 15:59:00,65.3,63.8,29.86,East,90,5.3,-999.0,95,-99.99,,,1.99,Acu-Link.com,2013-09-12 21:59:00,
2013-09-12 16:14:00,65.5,64.0,29.85,NE,45,6.8,-999.0,95,-99.99,,,2.00,Acu-Link.com,2013-09-12 22:14:00,
2013-09-12 16:29:00,66.7,65.2,29.84,East,90,7.8,-999.0,95,-99.99,,,2.00,Acu-Link.com,2013-09-12 22:29:00,
2013-09-12 16:45:00,67.8,65.7,29.84,East,90,9.9,-999.0,93,-99.99,,,2.00,Acu-Link.com,2013-09-12 22:45:00,
2013-09-12 17:00:00,68.2,66.1,29.85,ENE,67,6.3,-999.0,93,-99.99,,,2.00,Acu-Link.com,2013-09-12 23:00:00,
2013-09-12 17:15:00,68.5,66.1,29.85,NE,45,7.8,-999.0,92,-99.99,,,2.00,Acu-Link.com,2013-09-12 23:15:00,
2013-09-12 17:30:00,68.9,66.5,29.84,ENE,67,6.8,-999.0,92,-99.99,,,2.00,Acu-Link.com,2013-09-12 23:30:00,
2013-09-12 17:45:00,69.1,66.7,29.84,NE,45,5.8,-999.0,92,-99.99,,,2.00,Acu-Link.com,2013-09-12 23:45:00,
2013-09-12 18:00:00,69.3,66.6,29.82,East,90,11.4,-999.0,91,-99.99,,,2.00,Acu-Link.com,2013-09-13 00:00:00,
2013-09-12 18:16:00,69.3,66.2,29.83,East,90,7.8,-999.0,90,-99.99,,,2.00,Acu-Link.com,2013-09-13 00:16:00,
2013-09-12 18:34:00,69.3,66.2,29.83,ENE,67,8.9,-999.0,90,-99.99,,,2.00,Acu-Link.com,2013-09-13 00:34:00,
2013-09-12 18:49:00,69.3,65.6,29.83,ENE,67,9.4,-999.0,88,-99.99,,,2.00,Acu-Link.com,2013-09-13 00:49:00,
2013-09-12 19:04:00,69.3,65.6,29.84,NE,45,4.2,-999.0,88,-99.99,,,2.00,Acu-Link.com,2013-09-13 01:04:00,
2013-09-12 19:20:00,68.7,65.6,29.83,NNE,22,9.4,-999.0,90,-99.99,,,2.00,Acu-Link.com,2013-09-13 01:20:00,
2013-09-12 19:41:00,68.7,65.6,29.83,North,0,7.8,-999.0,90,-99.99,,,2.00,Acu-Link.com,2013-09-13 01:41:00,
2013-09-12 19:56:00,68.4,65.3,29.84,NNE,22,9.9,-999.0,90,-99.99,,,2.00,Acu-Link.com,2013-09-13 01:56:00,
2013-09-12 20:11:00,68.2,65.5,29.84,North,0,5.3,-999.0,91,-99.99,,,2.00,Acu-Link.com,2013-09-13 02:11:00,
2013-09-12 20:28:00,67.6,65.2,29.83,NNE,22,7.8,-999.0,92,-99.99,,,2.00,Acu-Link.com,2013-09-13 02:28:00,
2013-09-12 20:44:00,67.6,65.2,29.85,North,0,4.7,-999.0,92,-99.99,,,2.00,Acu-Link.com,2013-09-13 02:44:00,
2013-09-12 20:59:00,67.3,65.2,29.84,WNW,292,5.3,-999.0,93,-99.99,,,2.00,Acu-Link.com,2013-09-13 02:59:00,
2013-09-12 21:14:00,66.9,65.1,29.84,NNW,337,4.2,-999.0,94,-99.99,,,2.00,Acu-Link.com,2013-09-13 03:14:00,
2013-09-12 21:29:00,66.9,65.4,29.85,NNE,22,5.8,-999.0,95,-99.99,,,2.00,Acu-Link.com,2013-09-13 03:29:00,
2013-09-12 21:44:00,66.9,65.4,29.85,NNE,22,10.9,-999.0,95,-99.99,,,2.00,Acu-Link.com,2013-09-13 03:44:00,
2013-09-12 21:59:00,66.9,65.7,29.85,NNW,337,6.3,-999.0,96,-99.99,,,2.00,Acu-Link.com,2013-09-13 03:59:00,
2013-09-12 22:14:00,66.7,65.5,29.87,NE,45,3.7,-999.0,96,-99.99,,,2.00,Acu-Link.com,2013-09-13 04:14:00,
2013-09-12 22:29:00,66.4,65.8,29.86,North,0,5.8,-999.0,98,-99.99,,,2.00,Acu-Link.com,2013-09-13 04:29:00,
2013-09-12 22:44:00,66.2,65.9,29.85,NNW,337,5.3,-999.0,99,-99.99,,,2.01,Acu-Link.com,2013-09-13 04:44:00,
2013-09-12 23:14:00,66.0,65.7,29.85,NW,315,6.8,-999.0,99,-99.99,,,2.01,Acu-Link.com,2013-09-13 05:14:00,
2013-09-12 23:29:00,66.0,65.7,29.86,ENE,67,6.8,-999.0,99,-99.99,,,2.01,Acu-Link.com,2013-09-13 05:29:00,
2013-09-12 23:45:00,66.0,65.7,29.87,NNE,22,5.8,-999.0,99,-99.99,,,2.01,Acu-Link.com,2013-09-13 05:45:00,